Time;durP1;ratioP1;P1;durP2;ratioP2;P2;SDS_P1;SDS_P2;PMS_P1;PMS_P2;Temp;Humidity;BMP_temperature;BMP_pressure;BME280_temperature;BME280_humidity;BME280_pressure;Samples;Min_cycle;Max_cycle;Signal;HPM_P1;HPM_P2
2023/04/26 00:00:54;;;;;;;3.10;2.60;;;;;;;19.22;40.33;98546.75;104541;1256;72071;-62
2023/04/26 00:03:22;;;;;;;3.80;2.70;;;;;;;19.18;40.96;98548.73;104362;1267;69278;-62
2023/04/26 00:05:49;;;;;;;3.30;2.90;;;;;;;19.19;40.27;98550.05;104379;1253;72937;-62
2023/04/26 00:08:16;;;;;;;3.60;2.90;;;;;;;19.16;40.82;98548.27;104326;1257;61232;-62
2023/04/26 00:10:43;;;;;;;5.00;2.90;;;;;;;19.11;41.05;98552.50;104596;1271;59756;-62
2023/04/26 00:13:10;;;;;;;2.90;2.70;;;;;;;19.09;41.19;98554.30;104468;1253;73022;-62
2023/04/26 00:15:37;;;;;;;2.80;2.60;;;;;;;19.03;40.87;98558.29;104294;1264;68497;-62
2023/04/26 00:18:04;;;;;;;3.10;2.70;;;;;;;19.01;41.01;98555.67;104362;1256;72146;-64
2023/04/26 00:20:31;;;;;;;5.80;3.00;;;;;;;18.99;41.13;98555.71;104438;1251;61836;-62
2023/04/26 00:22:58;;;;;;;3.30;3.00;;;;;;;18.92;41.18;98555.87;104589;1253;59755;-62
2023/04/26 00:25:25;;;;;;;3.70;3.00;;;;;;;18.88;41.58;98555.86;104457;1271;72308;-62
2023/04/26 00:27:52;;;;;;;3.40;2.90;;;;;;;18.87;41.80;98557.73;104332;1256;69271;-63
2023/04/26 00:30:20;;;;;;;3.30;3.00;;;;;;;18.90;41.73;98553.50;104470;1253;72321;-62
2023/04/26 00:32:47;;;;;;;5.90;2.80;;;;;;;18.91;41.96;98556.61;104385;1258;62195;-62
2023/04/26 00:35:14;;;;;;;3.30;3.00;;;;;;;18.97;41.85;98557.51;104271;1263;59641;-62
2023/04/26 00:37:41;;;;;;;3.30;2.70;;;;;;;18.98;41.96;98556.63;104427;1264;73457;-62
2023/04/26 00:40:09;;;;;;;5.20;2.70;;;;;;;18.94;42.46;98556.86;104553;1269;68765;-62
2023/04/26 00:42:37;;;;;;;4.00;2.50;;;;;;;18.97;43.09;98559.05;104417;1252;72677;-62
2023/04/26 00:45:06;;;;;;;3.00;2.70;;;;;;;19.00;43.19;98561.27;104507;1257;61626;-62
2023/04/26 00:47:33;;;;;;;2.60;2.30;;;;;;;19.04;42.93;98560.95;104439;1258;61120;-61
2023/04/26 00:50:00;;;;;;;3.20;2.60;;;;;;;19.03;43.03;98564.21;104365;1268;72734;-64
2023/04/26 00:52:27;;;;;;;5.10;3.00;;;;;;;19.02;43.00;98560.05;104718;1258;68671;-63
2023/04/26 00:54:55;;;;;;;3.60;2.50;;;;;;;19.03;43.17;98561.39;104367;1270;72137;-62
2023/04/26 00:57:22;;;;;;;3.10;2.70;;;;;;;19.11;43.05;98560.42;104269;1269;62512;-64
2023/04/26 00:59:49;;;;;;;4.20;2.70;;;;;;;19.16;42.62;98561.22;104437;1259;60643;-62
2023/04/26 01:02:16;;;;;;;4.00;2.60;;;;;;;19.16;43.01;98563.19;104413;1274;73083;-62
2023/04/26 01:04:44;;;;;;;2.90;2.70;;;;;;;19.17;43.26;98559.12;104488;1257;69543;-62
2023/04/26 01:07:12;;;;;;;2.50;2.30;;;;;;;19.18;43.10;98560.85;104441;1258;73051;-62
2023/04/26 01:09:39;;;;;;;3.10;2.80;;;;;;;19.17;43.53;98557.34;104276;1268;60701;-63
2023/04/26 01:12:06;;;;;;;4.00;2.50;;;;;;;19.19;43.16;98550.63;104598;1253;59857;-64
2023/04/26 01:14:35;;;;;;;2.50;2.30;;;;;;;19.18;43.70;98550.16;104408;1255;72170;-62
2023/04/26 01:17:02;;;;;;;2.70;2.40;;;;;;;19.15;43.45;98550.79;104259;1270;68996;-62
2023/04/26 01:19:31;;;;;;;3.70;2.70;;;;;;;19.12;43.94;98551.15;104385;1257;72067;-63
2023/04/26 01:21:58;;;;;;;8.90;2.90;;;;;;;19.08;45.46;98549.54;104337;1261;60746;-63
2023/04/26 01:24:24;;;;;;;2.60;2.40;;;;;;;19.11;45.98;98549.06;104581;1252;59722;-62
2023/04/26 01:26:51;;;;;;;3.60;2.60;;;;;;;19.10;46.90;98547.19;104327;1257;72494;-62
2023/04/26 01:29:20;;;;;;;;;;;;;;;19.06;46.49;98548.64;104373;1258;69997;-62
2023/04/26 01:31:47;;;;;;;3.00;2.30;;;;;;;19.02;47.94;98544.83;104500;1253;72747;-63
2023/04/26 01:34:14;;;;;;;4.40;2.50;;;;;;;18.91;48.09;98542.42;104504;1257;60828;-64
2023/04/26 01:36:41;;;;;;;4.10;2.10;;;;;;;18.88;50.04;98539.88;104772;1252;61628;-62
2023/04/26 01:39:08;;;;;;;2.60;2.40;;;;;;;18.84;49.81;98540.45;104344;1251;73164;-63
2023/04/26 01:41:35;;;;;;;3.00;2.60;;;;;;;18.87;50.77;98535.93;104382;1271;69481;-62
2023/04/26 01:44:02;;;;;;;2.60;2.20;;;;;;;18.93;51.87;98536.72;104722;1253;72884;-63
2023/04/26 01:46:30;;;;;;;4.90;2.50;;;;;;;18.92;50.71;98532.23;104577;1264;60985;-63
2023/04/26 01:48:58;;;;;;;2.10;1.90;;;;;;;18.88;52.93;98532.45;104292;1253;59747;-66
2023/04/26 01:51:25;;;;;;;3.80;2.60;;;;;;;18.87;53.95;98534.84;104409;1253;73660;-63
2023/04/26 01:53:52;;;;;;;2.40;2.20;;;;;;;18.87;52.54;98535.15;104520;1253;69948;-63
2023/04/26 01:56:19;;;;;;;2.40;2.20;;;;;;;18.92;54.02;98534.54;107672;1251;73151;-63
2023/04/26 01:58:46;;;;;;;3.10;2.30;;;;;;;18.98;54.63;98530.77;108490;1251;61640;-63
2023/04/26 02:01:13;;;;;;;2.20;2.00;;;;;;;19.03;53.75;98527.11;108387;1251;60607;-63
2023/04/26 02:03:40;;;;;;;2.80;2.30;;;;;;;19.05;54.37;98522.29;108470;1253;73241;-63
2023/04/26 02:06:08;;;;;;;1.90;1.80;;;;;;;19.09;54.43;98522.80;108394;1251;69609;-63
2023/04/26 02:08:35;;;;;;;2.50;2.20;;;;;;;19.19;54.36;98522.37;108450;1253;72202;-66
2023/04/26 02:11:02;;;;;;;3.10;2.00;;;;;;;19.25;54.21;98523.77;105132;1255;61272;-63
2023/04/26 02:13:30;;;;;;;2.10;2.00;;;;;;;19.22;54.12;98526.14;104352;1266;59827;-63
2023/04/26 02:15:56;;;;;;;3.30;2.10;;;;;;;19.20;54.35;98524.58;104366;1257;72314;-62
2023/04/26 02:18:24;;;;;;;4.60;2.40;;;;;;;19.21;54.55;98519.86;104330;1260;69718;-63
2023/04/26 02:20:51;;;;;;;2.50;2.30;;;;;;;19.13;56.01;98514.77;104296;1259;72827;-62
2023/04/26 02:23:18;;;;;;;2.20;2.00;;;;;;;19.14;56.13;98516.14;104374;1253;61211;-62
2023/04/26 02:25:46;;;;;;;2.60;2.40;;;;;;;19.11;55.14;98516.77;104456;1271;59774;-63
2023/04/26 02:28:13;;;;;;;2.50;2.30;;;;;;;19.00;54.38;98511.69;104319;1261;73214;-62
2023/04/26 02:30:40;;;;;;;2.70;2.50;;;;;;;18.87;54.88;98513.33;104571;1269;68872;-62
2023/04/26 02:33:08;;;;;;;2.80;2.40;;;;;;;18.77;57.02;98513.41;104700;1258;72132;-62
2023/04/26 02:35:36;;;;;;;2.60;2.40;;;;;;;18.73;58.01;98510.55;104844;1256;61076;-63
2023/04/26 02:38:03;;;;;;;2.30;2.10;;;;;;;18.80;58.72;98511.19;105120;1256;60323;-63
2023/04/26 02:40:30;;;;;;;2.70;2.50;;;;;;;18.82;59.02;98505.30;104719;1257;72518;-62
2023/04/26 02:42:57;;;;;;;3.10;2.30;;;;;;;18.88;59.38;98499.37;104550;1268;69618;-64
2023/04/26 02:45:25;;;;;;;4.90;2.20;;;;;;;18.94;59.64;98497.75;104515;1272;72475;-62
2023/04/26 02:47:52;;;;;;;2.50;2.30;;;;;;;18.95;60.33;98496.80;104752;1253;60954;-62
2023/04/26 02:50:19;;;;;;;3.40;2.20;;;;;;;19.00;59.81;98494.89;104315;1265;60406;-62
2023/04/26 02:52:47;;;;;;;2.30;2.10;;;;;;;19.04;59.57;98490.60;104339;1265;72385;-63
2023/04/26 02:55:14;;;;;;;2.80;2.40;;;;;;;19.13;59.53;98491.39;104525;1260;69841;-62
2023/04/26 02:57:41;;;;;;;2.30;2.10;;;;;;;19.21;58.84;98494.52;104440;1253;73321;-61
2023/04/26 03:00:08;;;;;;;2.60;2.40;;;;;;;19.27;58.49;98493.76;104465;1258;61144;-62
2023/04/26 03:02:36;;;;;;;2.90;2.40;;;;;;;19.31;58.07;98494.90;104423;1257;60525;-63
2023/04/26 03:05:04;;;;;;;2.30;2.20;;;;;;;19.26;58.12;98493.27;104352;1258;73011;-62
2023/04/26 03:07:31;;;;;;;2.60;2.40;;;;;;;19.23;58.17;98492.88;104698;1258;69237;-61
2023/04/26 03:09:59;;;;;;;2.70;2.40;;;;;;;19.23;58.46;98496.77;104418;1258;72673;-62
2023/04/26 03:12:26;;;;;;;3.30;2.60;;;;;;;19.21;58.69;98496.39;104399;1254;61971;-62
2023/04/26 03:14:53;;;;;;;2.90;2.60;;;;;;;19.25;58.17;98498.52;104345;1254;60503;-62
2023/04/26 03:17:20;;;;;;;3.10;2.80;;;;;;;19.29;58.19;98494.98;104405;1266;72977;-62
2023/04/26 03:19:47;;;;;;;4.40;2.90;;;;;;;19.27;57.82;98490.70;104406;1258;70004;-62
2023/04/26 03:22:15;;;;;;;3.10;2.70;;;;;;;19.30;57.76;98488.28;104402;1259;73214;-62
2023/04/26 03:24:43;;;;;;;3.40;3.00;;;;;;;19.34;57.73;98487.34;104380;1258;62666;-62
2023/04/26 03:27:10;;;;;;;3.60;2.50;;;;;;;19.34;57.67;98489.33;104568;1264;60433;-62
2023/04/26 03:29:38;;;;;;;6.00;3.30;;;;;;;19.34;57.32;98487.86;104364;1263;74198;-64
2023/04/26 03:32:06;;;;;;;4.20;3.30;;;;;;;19.37;57.01;98482.99;104370;1267;68511;-64
2023/04/26 03:34:33;;;;;;;3.40;3.10;;;;;;;19.37;57.15;98481.53;104435;1256;71895;-64
2023/04/26 03:37:01;;;;;;;3.30;3.00;;;;;;;19.42;56.85;98475.05;104641;1257;61826;-64
2023/04/26 03:39:28;;;;;;;5.80;3.30;;;;;;;19.48;56.37;98471.73;104565;1260;60762;-64
2023/04/26 03:41:55;;;;;;;4.10;3.30;;;;;;;19.48;56.03;98472.63;104379;1264;73120;-64
2023/04/26 03:44:22;;;;;;;3.50;3.20;;;;;;;19.48;56.38;98471.22;104390;1258;68605;-63
2023/04/26 03:46:49;;;;;;;3.00;2.80;;;;;;;19.51;56.06;98473.92;104322;1253;71966;-63
2023/04/26 03:49:16;;;;;;;3.90;3.20;;;;;;;19.56;56.14;98482.01;104760;1261;61317;-63
2023/04/26 03:51:43;;;;;;;3.30;3.10;;;;;;;19.58;56.37;98486.92;104253;1257;60606;-63
2023/04/26 03:54:10;;;;;;;3.60;2.90;;;;;;;19.56;56.96;98487.33;104306;1254;74005;-63
2023/04/26 03:56:38;;;;;;;3.70;3.40;;;;;;;19.60;56.90;98486.25;104872;1260;68627;-63
2023/04/26 03:59:06;;;;;;;5.40;3.80;;;;;;;19.61;57.50;98486.45;104674;1258;71741;-62
2023/04/26 04:01:33;;;;;;;3.30;3.00;;;;;;;19.59;57.45;98483.13;104464;1260;60721;-63
2023/04/26 04:04:00;;;;;;;4.20;3.40;;;;;;;19.55;57.48;98482.98;104249;1267;60536;-63
2023/04/26 04:06:28;;;;;;;3.80;3.40;;;;;;;19.47;57.97;98484.81;104627;1258;74283;-67
2023/04/26 04:08:55;;;;;;;4.00;3.60;;;;;;;19.50;57.77;98485.23;104413;1257;68967;-65
2023/04/26 04:11:23;;;;;;;4.70;3.40;;;;;;;19.58;58.48;98489.65;104320;1265;72589;-66
2023/04/26 04:13:50;;;;;;;5.10;3.70;;;;;;;19.59;58.59;98489.19;104345;1257;61489;-65
2023/04/26 04:16:17;;;;;;;3.40;3.10;;;;;;;19.61;58.11;98492.18;104374;1257;60456;-65
2023/04/26 04:18:44;;;;;;;4.00;3.60;;;;;;;19.62;57.81;98487.57;104370;1253;75124;-65
2023/04/26 04:21:11;;;;;;;3.90;3.50;;;;;;;19.60;58.28;98487.63;104216;1264;69846;-66
2023/04/26 04:23:39;;;;;;;3.50;3.10;;;;;;;19.55;58.53;98487.76;104517;1253;71824;-62
2023/04/26 04:26:08;;;;;;;3.30;3.00;;;;;;;19.55;58.70;98489.58;104545;1259;62101;-65
2023/04/26 04:28:35;;;;;;;3.60;3.20;;;;;;;19.56;58.05;98490.02;104454;1256;60568;-65
2023/04/26 04:31:02;;;;;;;3.40;3.10;;;;;;;19.59;57.85;98491.70;104456;1266;73859;-65
2023/04/26 04:33:31;;;;;;;3.40;3.20;;;;;;;19.67;57.97;98495.31;104521;1258;69938;-67
2023/04/26 04:35:59;;;;;;;4.00;3.50;;;;;;;19.72;57.95;98495.77;104329;1269;72419;-67
2023/04/26 04:38:26;;;;;;;4.30;3.70;;;;;;;19.71;57.24;98496.39;104242;1254;62051;-64
2023/04/26 04:40:53;;;;;;;7.30;4.60;;;;;;;19.70;57.06;98501.23;104521;1252;60532;-66
2023/04/26 04:43:20;;;;;;;4.70;4.40;;;;;;;19.68;57.52;98500.01;104406;1257;73284;-65
2023/04/26 04:45:48;;;;;;;5.30;4.60;;;;;;;19.71;57.23;98501.16;104264;1273;70005;-67
2023/04/26 04:48:17;;;;;;;4.50;4.10;;;;;;;19.73;57.08;98501.27;104386;1254;73347;-66
2023/04/26 04:50:45;;;;;;;4.10;3.80;;;;;;;19.74;57.92;98504.05;104366;1258;60850;-66
2023/04/26 04:53:13;;;;;;;5.70;4.80;;;;;;;19.82;57.81;98498.81;104419;1260;60768;-66
2023/04/26 04:55:40;;;;;;;5.00;4.50;;;;;;;19.89;57.87;98503.48;104318;1259;74041;-65
2023/04/26 04:58:08;;;;;;;4.50;4.20;;;;;;;19.95;57.76;98501.46;104345;1263;69389;-66
2023/04/26 05:00:36;;;;;;;4.60;4.20;;;;;;;19.97;57.04;98503.89;104472;1265;71689;-66
2023/04/26 05:03:13;;;;;;;4.70;4.10;;;;;;;20.03;57.20;98504.27;104303;1268;61885;-65
2023/04/26 05:05:41;;;;;;;4.40;4.00;;;;;;;20.02;56.97;98505.00;104537;1253;61071;-63
2023/04/26 05:08:08;;;;;;;3.70;3.40;;;;;;;20.26;56.07;98503.02;104526;1269;73006;-64
2023/04/26 05:10:35;;;;;;;3.60;3.30;;;;;;;20.32;55.12;98507.36;104455;1256;69690;-64
2023/04/26 05:13:02;;;;;;;4.00;3.70;;;;;;;20.31;55.05;98507.33;104411;1254;71663;-65
2023/04/26 05:15:29;;;;;;;4.10;3.50;;;;;;;20.30;54.81;98507.75;104331;1258;61940;-64
2023/04/26 05:17:58;;;;;;;4.40;3.50;;;;;;;20.32;54.68;98509.68;104480;1254;60675;-64
2023/04/26 05:20:25;;;;;;;4.30;3.00;;;;;;;20.33;54.60;98504.91;104334;1275;73394;-64
2023/04/26 05:22:52;;;;;;;4.70;3.20;;;;;;;20.35;54.34;98508.70;104686;1265;68879;-65
2023/04/26 05:25:20;;;;;;;2.80;2.50;;;;;;;20.34;54.21;98510.02;104730;1257;72286;-64
2023/04/26 05:27:53;;;;;;;3.60;2.70;;;;;;;20.37;54.11;98504.77;104340;1271;62265;-63
2023/04/26 05:30:46;;;;;;;3.20;2.70;;;;;;;20.36;52.90;98506.42;104308;1254;59748;-63
2023/04/26 05:33:42;;;;;;;3.00;2.60;;;;;;;20.29;52.77;98503.27;104293;1270;73914;-64
2023/04/26 05:36:16;;;;;;;2.90;2.60;;;;;;;20.23;52.88;98499.92;104319;1266;69755;-63
2023/04/26 05:38:43;;;;;;;2.80;2.20;;;;;;;20.22;53.23;98501.63;104553;1258;72030;-63
2023/04/26 05:41:10;;;;;;;4.90;2.70;;;;;;;20.22;52.32;98498.56;104391;1266;62144;-63
2023/04/26 05:43:38;;;;;;;2.60;2.40;;;;;;;20.21;52.20;98499.55;104312;1273;59951;-63
2023/04/26 05:46:05;;;;;;;3.90;2.50;;;;;;;20.28;52.39;98501.51;104727;1260;73349;-69
2023/04/26 05:48:33;;;;;;;;;;;;;;;20.37;52.60;98499.20;104376;1258;69916;-70
2023/04/26 05:51:00;;;;;;;3.40;2.00;;;;;;;20.48;52.61;98500.37;104317;1267;72291;-70
2023/04/26 05:53:27;;;;;;;2.70;2.10;;;;;;;20.51;51.81;98500.83;104357;1267;61943;-68
2023/04/26 05:55:54;;;;;;;2.30;2.10;;;;;;;20.58;52.21;98505.13;104489;1254;60554;-68
2023/04/26 05:58:22;;;;;;;2.10;2.00;;;;;;;20.70;52.57;98502.72;104428;1255;73233;-67
2023/04/26 06:00:50;;;;;;;2.50;2.20;;;;;;;20.81;52.37;98500.04;104560;1258;68803;-68
2023/04/26 06:03:18;;;;;;;2.40;2.10;;;;;;;20.96;51.90;98497.32;104609;1257;72086;-66
2023/04/26 06:05:45;;;;;;;2.80;2.10;;;;;;;21.07;51.41;98499.75;104556;1257;63090;-64
2023/04/26 06:08:12;;;;;;;2.40;2.20;;;;;;;21.12;51.30;98499.55;104288;1265;60420;-66
2023/04/26 06:10:40;;;;;;;4.50;2.30;;;;;;;21.13;51.15;98501.54;104320;1255;73071;-64
2023/04/26 06:13:07;;;;;;;2.80;2.50;;;;;;;21.23;50.79;98498.25;104557;1254;68501;-64
2023/04/26 06:15:35;;;;;;;2.70;2.30;;;;;;;21.23;51.11;98500.83;104450;1256;71806;-66
2023/04/26 06:18:03;;;;;;;2.70;2.30;;;;;;;21.31;50.93;98496.65;104367;1258;62015;-65
2023/04/26 06:20:31;;;;;;;2.50;2.30;;;;;;;21.38;51.11;98493.79;104536;1252;60562;-65
2023/04/26 06:22:58;;;;;;;5.30;2.30;;;;;;;21.42;50.99;98490.17;104609;1267;73265;-65
2023/04/26 06:25:25;;;;;;;2.40;2.20;;;;;;;21.49;50.29;98487.63;104406;1257;70174;-68
2023/04/26 06:27:53;;;;;;;3.00;2.30;;;;;;;21.52;50.11;98495.94;104667;1260;72755;-65
2023/04/26 06:30:20;;;;;;;3.10;2.50;;;;;;;21.42;50.58;98500.30;105576;1259;61095;-64
2023/04/26 06:32:47;;;;;;;4.10;2.20;;;;;;;21.43;51.12;98503.79;104627;1258;60454;-66
2023/04/26 06:35:15;;;;;;;4.20;2.30;;;;;;;21.47;50.96;98511.36;104538;1258;73849;-66
2023/04/26 06:37:42;;;;;;;3.50;2.10;;;;;;;21.51;50.11;98508.44;104448;1259;69241;-65
2023/04/26 06:40:12;;;;;;;3.70;2.20;;;;;;;21.57;50.42;98506.61;104511;1263;72001;-64
2023/04/26 06:42:40;;;;;;;3.70;2.40;;;;;;;21.64;50.25;98505.12;104369;1273;62249;-65
2023/04/26 06:45:17;;;;;;;2.70;1.90;;;;;;;21.69;50.20;98503.86;104553;1254;60530;-63
2023/04/26 06:47:45;;;;;;;3.10;1.80;;;;;;;21.72;49.95;98505.90;104350;1256;74225;-65
2023/04/26 06:50:13;;;;;;;2.10;2.00;;;;;;;21.75;50.21;98499.89;104390;1268;68680;-64
2023/04/26 06:52:40;;;;;;;3.00;2.20;;;;;;;21.91;50.24;98499.38;104324;1256;71946;-67
2023/04/26 06:55:07;;;;;;;2.70;2.30;;;;;;;22.01;50.51;98502.36;104484;1257;60853;-65
2023/04/26 06:57:35;;;;;;;2.50;2.10;;;;;;;22.16;50.45;98497.95;104368;1264;59877;-65
2023/04/26 07:00:03;;;;;;;2.60;2.20;;;;;;;22.28;49.88;98496.70;104435;1258;72723;-65
2023/04/26 07:02:30;;;;;;;2.50;2.00;;;;;;;22.37;50.12;98494.95;104411;1256;68963;-65
2023/04/26 07:04:57;;;;;;;4.20;2.60;;;;;;;22.50;49.97;98498.83;104288;1252;71846;-65
2023/04/26 07:07:24;;;;;;;3.10;2.20;;;;;;;22.61;49.07;98496.45;104412;1261;61013;-65
2023/04/26 07:09:51;;;;;;;3.80;2.50;;;;;;;22.71;49.23;98495.84;104303;1257;60436;-65
2023/04/26 07:12:19;;;;;;;3.00;2.40;;;;;;;22.80;48.93;98501.06;104278;1257;74095;-65
2023/04/26 07:14:46;;;;;;;3.90;2.30;;;;;;;22.90;49.25;98497.45;104347;1261;68979;-65
2023/04/26 07:17:13;;;;;;;2.90;2.50;;;;;;;23.01;49.54;98499.34;104386;1264;73072;-65
2023/04/26 07:19:40;;;;;;;4.70;3.10;;;;;;;23.18;49.14;98495.07;104385;1252;61153;-65
2023/04/26 07:22:08;;;;;;;4.40;3.10;;;;;;;23.30;48.62;98495.98;104424;1260;59942;-65
2023/04/26 07:24:35;;;;;;;3.10;2.80;;;;;;;23.42;48.69;98491.75;104648;1256;73292;-64
2023/04/26 07:27:03;;;;;;;5.20;3.00;;;;;;;23.55;48.19;98495.71;104365;1259;69167;-66
2023/04/26 07:29:30;;;;;;;2.90;2.70;;;;;;;23.62;48.27;98490.36;104363;1258;73157;-66
2023/04/26 07:31:57;;;;;;;3.70;3.40;;;;;;;23.74;48.43;98489.40;104543;1258;61337;-65
2023/04/26 07:34:24;;;;;;;3.50;3.10;;;;;;;23.96;47.57;98493.98;108363;1252;60721;-66
2023/04/26 07:36:51;;;;;;;4.50;3.40;;;;;;;24.05;47.83;98501.02;105539;1255;74896;-64
2023/04/26 07:39:18;;;;;;;3.10;2.90;;;;;;;24.11;47.30;98499.41;104679;1257;69024;-65
2023/04/26 07:41:45;;;;;;;3.40;3.10;;;;;;;24.22;46.85;98498.61;104749;1256;72924;-66
2023/04/26 07:44:12;;;;;;;3.40;2.90;;;;;;;24.30;46.84;98503.63;104923;1251;61346;-67
2023/04/26 07:46:39;;;;;;;3.10;2.80;;;;;;;24.35;46.84;98507.13;104573;1253;60543;-67
2023/04/26 07:49:07;;;;;;;3.30;2.70;;;;;;;24.40;46.66;98505.81;104529;1258;72946;-68
2023/04/26 07:51:35;;;;;;;4.20;2.40;;;;;;;24.48;46.58;98505.45;104546;1258;69812;-65
2023/04/26 07:54:02;;;;;;;3.60;2.60;;;;;;;24.55;46.66;98505.23;104572;1251;72835;-65
2023/04/26 07:56:29;;;;;;;3.40;3.00;;;;;;;24.46;46.41;98509.92;105008;1258;61411;-66
2023/04/26 07:58:56;;;;;;;4.90;2.70;;;;;;;24.39;46.04;98510.45;104837;1254;60565;-66
2023/04/26 08:01:23;;;;;;;4.00;2.90;;;;;;;24.35;46.13;98512.61;104615;1267;73064;-67
2023/04/26 08:03:50;;;;;;;8.50;2.90;;;;;;;24.33;46.22;98512.05;104417;1263;69973;-66
2023/04/26 08:06:17;;;;;;;5.70;3.00;;;;;;;24.34;46.02;98514.46;104451;1267;73043;-67
2023/04/26 08:08:48;;;;;;;3.10;2.80;;;;;;;24.25;46.14;98516.34;104373;1260;61196;-66
2023/04/26 08:11:15;;;;;;;4.80;2.70;;;;;;;24.18;46.00;98520.73;104411;1267;61169;-65
2023/04/26 08:13:42;;;;;;;3.40;3.10;;;;;;;24.20;46.25;98518.81;104423;1254;73326;-65
2023/04/26 08:16:09;;;;;;;3.60;3.20;;;;;;;24.27;46.41;98520.79;104325;1274;68664;-68
2023/04/26 08:18:36;;;;;;;3.70;3.30;;;;;;;24.32;46.19;98518.80;104474;1256;71585;-68
2023/04/26 08:21:04;;;;;;;5.10;3.00;;;;;;;24.34;46.19;98517.19;104331;1259;61193;-66
2023/04/26 08:23:35;;;;;;;3.10;2.70;;;;;;;24.35;46.17;98517.91;104356;1254;60551;-65
2023/04/26 08:26:02;;;;;;;7.20;3.50;;;;;;;24.34;45.90;98517.52;104296;1267;73270;-65
2023/04/26 08:28:29;;;;;;;5.10;3.80;;;;;;;24.32;45.85;98518.98;104316;1259;68967;-64
2023/04/26 08:30:57;;;;;;;3.80;3.50;;;;;;;24.34;46.00;98522.39;104404;1270;73174;-63
2023/04/26 08:33:24;;;;;;;3.60;3.30;;;;;;;24.31;45.95;98524.70;104340;1263;61272;-64
2023/04/26 08:35:51;;;;;;;3.80;3.30;;;;;;;24.19;46.05;98526.17;104367;1266;61996;-65
2023/04/26 08:38:18;;;;;;;3.30;3.10;;;;;;;24.15;46.09;98528.25;104448;1257;73434;-64
2023/04/26 08:40:45;;;;;;;4.10;3.10;;;;;;;24.25;45.85;98524.73;104358;1261;69042;-64
2023/04/26 08:43:12;;;;;;;3.00;2.70;;;;;;;24.29;45.53;98518.95;104408;1251;72929;-64
2023/04/26 08:45:40;;;;;;;3.70;3.00;;;;;;;24.39;45.70;98517.03;104417;1261;62134;-65
2023/04/26 08:48:10;;;;;;;3.50;2.60;;;;;;;24.39;45.50;98512.20;104325;1274;59811;-64
2023/04/26 08:50:37;;;;;;;2.70;2.50;;;;;;;24.44;45.69;98510.50;104477;1251;73790;-64
2023/04/26 08:53:04;;;;;;;3.20;2.90;;;;;;;24.50;45.67;98516.34;104403;1254;69442;-64
2023/04/26 08:55:31;;;;;;;3.20;2.90;;;;;;;24.50;45.67;98515.36;104226;1254;72047;-65
2023/04/26 08:57:58;;;;;;;2.90;2.50;;;;;;;24.46;46.29;98517.61;104375;1257;62073;-66
2023/04/26 09:00:26;;;;;;;3.50;2.90;;;;;;;24.30;46.29;98520.77;104699;1253;60691;-64
2023/04/26 09:02:53;;;;;;;2.50;2.30;;;;;;;24.19;47.20;98523.42;104368;1271;72853;-63
2023/04/26 09:05:22;;;;;;;2.80;2.50;;;;;;;24.08;47.59;98525.76;104354;1261;68876;-63
2023/04/26 09:07:50;;;;;;;3.80;2.80;;;;;;;23.98;48.09;98526.70;104367;1258;72830;-63
2023/04/26 09:10:20;;;;;;;4.70;2.40;;;;;;;23.87;48.49;98532.77;104392;1259;61208;-62
2023/04/26 09:12:51;;;;;;;3.10;2.70;;;;;;;23.75;49.06;98532.09;104271;1256;60583;-63
2023/04/26 09:15:20;;;;;;;3.10;2.70;;;;;;;23.69;49.46;98530.17;104467;1268;72907;-62
2023/04/26 09:17:48;;;;;;;2.90;2.60;;;;;;;23.67;49.89;98529.73;104851;1254;68817;-69
2023/04/26 09:20:22;;;;;;;2.90;2.70;;;;;;;23.62;50.29;98531.52;104572;1263;73083;-64
2023/04/26 09:22:50;;;;;;;3.20;2.40;;;;;;;23.63;50.90;98532.19;104519;1263;63180;-64
2023/04/26 09:25:19;;;;;;;3.20;2.90;;;;;;;23.61;50.57;98532.73;104844;1254;60834;-64
2023/04/26 09:27:46;;;;;;;3.20;3.00;;;;;;;23.53;51.46;98532.45;104473;1254;73887;-65
2023/04/26 09:30:17;;;;;;;2.80;2.60;;;;;;;23.47;50.95;98534.17;104552;1254;69879;-64
2023/04/26 09:33:10;;;;;;;3.10;2.80;;;;;;;23.36;51.34;98531.52;104442;1259;73485;-66
2023/04/26 09:35:39;;;;;;;4.40;3.40;;;;;;;23.30;51.87;98536.37;104489;1252;61964;-64
2023/04/26 09:38:13;;;;;;;4.60;3.30;;;;;;;23.25;51.70;98540.92;104532;1260;60811;-65
2023/04/26 09:40:42;;;;;;;3.80;3.20;;;;;;;23.21;52.01;98541.34;104352;1257;72763;-64
2023/04/26 09:43:13;;;;;;;4.60;3.30;;;;;;;23.32;52.23;98542.33;104548;1255;69577;-64
2023/04/26 09:45:50;;;;;;;3.30;3.10;;;;;;;23.37;51.83;98542.57;104386;1267;73295;-64
2023/04/26 09:48:29;;;;;;;;;;;;;;;23.42;51.68;98542.71;104815;1251;62143;-66
2023/04/26 09:51:17;;;;;;;3.40;2.80;;;;;;;23.14;52.85;98547.48;104420;1258;61398;-63
2023/04/26 09:53:48;;;;;;;3.30;2.90;;;;;;;23.09;54.35;98547.58;104684;1257;73142;-66
2023/04/26 09:56:17;;;;;;;4.30;3.10;;;;;;;23.11;53.94;98547.47;104430;1261;69807;-66
2023/04/26 09:58:57;;;;;;;3.70;3.40;;;;;;;23.07;54.30;98550.34;104615;1251;72916;-65
2023/04/26 10:01:25;;;;;;;5.80;3.40;;;;;;;23.01;54.51;98551.33;104481;1258;62185;-65
2023/04/26 10:03:52;;;;;;;3.60;3.30;;;;;;;22.96;56.40;98552.50;104810;1261;60451;-64
2023/04/26 10:06:19;;;;;;;3.90;3.60;;;;;;;23.03;56.54;98554.09;104361;1270;73184;-64
2023/04/26 10:08:47;;;;;;;3.80;3.10;;;;;;;23.09;56.56;98553.27;104566;1257;69893;-66
2023/04/26 10:11:14;;;;;;;5.10;3.90;;;;;;;23.16;56.40;98555.56;104580;1251;72236;-67
2023/04/26 10:13:41;;;;;;;4.40;3.50;;;;;;;23.27;57.77;98552.89;104322;1254;62082;-64
2023/04/26 10:16:08;;;;;;;4.20;3.80;;;;;;;23.38;56.74;98552.88;104619;1265;61447;-66
2023/04/26 10:18:36;;;;;;;3.70;3.40;;;;;;;23.49;57.52;98549.42;104866;1255;73155;-66
2023/04/26 10:21:23;;;;;;;3.60;3.30;;;;;;;23.70;56.68;98543.83;104606;1258;69421;-66
2023/04/26 10:23:50;;;;;;;3.60;3.30;;;;;;;23.90;56.97;98544.46;105027;1255;72751;-69
2023/04/26 10:26:50;;;;;;;3.90;3.10;;;;;;;24.01;56.18;98543.19;104905;1255;62991;-65
2023/04/26 10:29:21;;;;;;;4.40;3.30;;;;;;;24.25;55.72;98543.04;104576;1257;60576;-66
2023/04/26 10:32:08;;;;;;;3.60;3.30;;;;;;;24.35;54.60;98541.30;104530;1270;74110;-68
2023/04/26 10:34:36;;;;;;;4.50;3.30;;;;;;;24.38;54.64;98543.67;104825;1257;69246;-62
2023/04/26 10:37:12;;;;;;;3.70;3.40;;;;;;;24.32;54.41;98545.31;104674;1251;72031;-65
2023/04/26 10:39:40;;;;;;;3.50;3.30;;;;;;;24.30;54.56;98545.86;104504;1256;61179;-65
2023/04/26 10:42:31;;;;;;;3.60;3.30;;;;;;;24.33;55.12;98548.02;104577;1255;60642;-65
2023/04/26 10:44:58;;;;;;;4.60;3.50;;;;;;;24.37;54.60;98550.80;104609;1257;73167;-65
2023/04/26 10:47:30;;;;;;;3.60;3.30;;;;;;;24.38;54.37;98549.95;104931;1256;69107;-67
2023/04/26 10:50:04;;;;;;;3.80;3.50;;;;;;;24.41;54.04;98551.78;104492;1254;72853;-65
2023/04/26 10:52:32;;;;;;;5.70;3.50;;;;;;;24.38;53.91;98552.67;104398;1257;62283;-66
2023/04/26 10:54:59;;;;;;;3.40;3.10;;;;;;;24.31;54.33;98553.48;104394;1254;60560;-65
2023/04/26 10:57:46;;;;;;;4.00;3.60;;;;;;;24.31;54.18;98550.61;104438;1256;73006;-65
2023/04/26 11:00:24;;;;;;;3.50;3.20;;;;;;;24.32;54.81;98558.93;104869;1253;69666;-66
2023/04/26 11:02:51;;;;;;;3.40;3.00;;;;;;;24.30;54.69;98555.80;104808;1259;71619;-66
2023/04/26 11:05:41;;;;;;;4.60;3.70;;;;;;;24.40;54.28;98556.72;104621;1257;62064;-67
2023/04/26 11:08:15;;;;;;;3.50;3.20;;;;;;;24.52;54.43;98555.73;105045;1258;61258;-67
2023/04/26 11:10:45;;;;;;;3.70;3.40;;;;;;;24.62;53.71;98558.14;104616;1252;75026;-65
2023/04/26 11:13:12;;;;;;;3.50;3.10;;;;;;;24.66;53.50;98560.56;104540;1255;69835;-66
2023/04/26 11:15:54;;;;;;;3.80;3.50;;;;;;;24.66;53.37;98559.80;104122;1257;72265;-65
2023/04/26 11:20:32;;;;;;;3.50;3.20;;;;;;;23.64;61.51;98559.70;101028;1297;617535;-64
2023/04/26 11:22:59;;;;;;;3.00;2.80;;;;;;;24.82;54.72;98557.84;103756;1267;62246;-64
2023/04/26 11:25:27;;;;;;;3.20;3.00;;;;;;;24.96;53.28;98554.56;103735;1267;59462;-64
2023/04/26 11:28:01;;;;;;;3.20;2.90;;;;;;;25.01;52.79;98552.70;104409;1257;71189;-64
2023/04/26 11:30:30;;;;;;;3.60;3.30;;;;;;;25.15;52.38;98554.42;104260;1256;68659;-64
2023/04/26 11:32:58;;;;;;;3.10;2.80;;;;;;;25.19;51.62;98554.65;104107;1258;199373;-65
2023/04/26 11:35:26;;;;;;;3.10;2.80;;;;;;;25.21;50.86;98553.92;104442;1271;61896;-65